sensor_id;sensor_type;location;lat;lon;timestamp;P1;durP1;ratioP1;P2;durP2;ratioP2
12774;SDS011;6451;42.630;23.382;2023-02-21T00:01:59;9.23;;;4.80;;
12774;SDS011;6451;42.630;23.382;2023-02-21T00:04:45;6.93;;;4.77;;
12774;SDS011;6451;42.630;23.382;2023-02-21T00:07:31;5.90;;;4.20;;
12774;SDS011;6451;42.630;23.382;2023-02-21T00:10:16;5.90;;;3.97;;
12774;SDS011;6451;42.630;23.382;2023-02-21T00:13:01;6.60;;;4.37;;
12774;SDS011;6451;42.630;23.382;2023-02-21T00:15:45;7.33;;;4.07;;
12774;SDS011;6451;42.630;23.382;2023-02-21T00:18:32;6.17;;;4.17;;
12774;SDS011;6451;42.630;23.382;2023-02-21T00:21:17;6.87;;;3.83;;
12774;SDS011;6451;42.630;23.382;2023-02-21T00:24:04;8.67;;;4.00;;
12774;SDS011;6451;42.630;23.382;2023-02-21T00:26:49;5.83;;;4.03;;
12774;SDS011;6451;42.630;23.382;2023-02-21T00:29:34;6.17;;;3.73;;
12774;SDS011;6451;42.630;23.382;2023-02-21T00:32:19;5.87;;;4.03;;
12774;SDS011;6451;42.630;23.382;2023-02-21T00:35:04;7.03;;;3.70;;
12774;SDS011;6451;42.630;23.382;2023-02-21T00:37:49;5.13;;;3.57;;
12774;SDS011;6451;42.630;23.382;2023-02-21T00:40:36;5.67;;;3.73;;
12774;SDS011;6451;42.630;23.382;2023-02-21T00:43:26;4.67;;;3.53;;
12774;SDS011;6451;42.630;23.382;2023-02-21T00:46:11;4.97;;;3.37;;
12774;SDS011;6451;42.630;23.382;2023-02-21T00:48:55;4.30;;;3.13;;
12774;SDS011;6451;42.630;23.382;2023-02-21T00:51:40;3.80;;;3.03;;
12774;SDS011;6451;42.630;23.382;2023-02-21T00:54:24;6.27;;;3.87;;
12774;SDS011;6451;42.630;23.382;2023-02-21T00:57:10;7.53;;;3.57;;
12774;SDS011;6451;42.630;23.382;2023-02-21T00:59:56;6.80;;;3.90;;
12774;SDS011;6451;42.630;23.382;2023-02-21T01:02:40;7.60;;;3.30;;
12774;SDS011;6451;42.630;23.382;2023-02-21T01:05:25;5.17;;;3.83;;
12774;SDS011;6451;42.630;23.382;2023-02-21T01:08:12;5.90;;;3.63;;
12774;SDS011;6451;42.630;23.382;2023-02-21T01:10:56;5.17;;;3.57;;
12774;SDS011;6451;42.630;23.382;2023-02-21T01:13:42;9.23;;;3.50;;
12774;SDS011;6451;42.630;23.382;2023-02-21T01:16:27;5.20;;;3.43;;
12774;SDS011;6451;42.630;23.382;2023-02-21T01:19:13;5.47;;;3.40;;
12774;SDS011;6451;42.630;23.382;2023-02-21T01:21:57;5.73;;;3.23;;
12774;SDS011;6451;42.630;23.382;2023-02-21T01:24:41;7.27;;;3.57;;
12774;SDS011;6451;42.630;23.382;2023-02-21T01:27:27;6.90;;;3.57;;
12774;SDS011;6451;42.630;23.382;2023-02-21T01:30:13;4.27;;;3.43;;
12774;SDS011;6451;42.630;23.382;2023-02-21T01:32:57;4.80;;;3.10;;
12774;SDS011;6451;42.630;23.382;2023-02-21T01:35:42;4.30;;;2.87;;
12774;SDS011;6451;42.630;23.382;2023-02-21T01:38:26;4.43;;;2.70;;
12774;SDS011;6451;42.630;23.382;2023-02-21T01:41:11;4.47;;;3.23;;
12774;SDS011;6451;42.630;23.382;2023-02-21T01:44:00;5.17;;;3.40;;
12774;SDS011;6451;42.630;23.382;2023-02-21T01:46:47;4.60;;;3.10;;
12774;SDS011;6451;42.630;23.382;2023-02-21T01:49:32;4.13;;;3.10;;
12774;SDS011;6451;42.630;23.382;2023-02-21T01:52:18;5.53;;;3.13;;
12774;SDS011;6451;42.630;23.382;2023-02-21T01:55:04;5.30;;;3.20;;
12774;SDS011;6451;42.630;23.382;2023-02-21T01:57:50;5.57;;;2.93;;
12774;SDS011;6451;42.630;23.382;2023-02-21T02:00:36;4.87;;;3.13;;
12774;SDS011;6451;42.630;23.382;2023-02-21T02:03:22;4.37;;;2.87;;
12774;SDS011;6451;42.630;23.382;2023-02-21T02:06:09;5.47;;;3.03;;
12774;SDS011;6451;42.630;23.382;2023-02-21T02:08:56;9.70;;;3.27;;
12774;SDS011;6451;42.630;23.382;2023-02-21T02:11:45;4.17;;;3.10;;
12774;SDS011;6451;42.630;23.382;2023-02-21T02:14:51;5.60;;;2.93;;
12774;SDS011;6451;42.630;23.382;2023-02-21T02:17:43;6.47;;;3.10;;
12774;SDS011;6451;42.630;23.382;2023-02-21T02:23:38;3.90;;;2.70;;
12774;SDS011;6451;42.630;23.382;2023-02-21T02:26:40;3.40;;;3.10;;
12774;SDS011;6451;42.630;23.382;2023-02-21T02:32:50;4.40;;;3.00;;
12774;SDS011;6451;42.630;23.382;2023-02-21T02:35:35;5.80;;;3.17;;
12774;SDS011;6451;42.630;23.382;2023-02-21T02:38:10;4.97;;;3.27;;
12774;SDS011;6451;42.630;23.382;2023-02-21T02:40:45;4.77;;;3.43;;
12774;SDS011;6451;42.630;23.382;2023-02-21T02:43:24;4.73;;;2.97;;
12774;SDS011;6451;42.630;23.382;2023-02-21T02:45:57;4.17;;;2.73;;
12774;SDS011;6451;42.630;23.382;2023-02-21T02:48:29;3.80;;;2.97;;
12774;SDS011;6451;42.630;23.382;2023-02-21T02:51:01;4.80;;;3.43;;
12774;SDS011;6451;42.630;23.382;2023-02-21T02:53:33;7.00;;;3.53;;
12774;SDS011;6451;42.630;23.382;2023-02-21T02:56:02;6.43;;;4.20;;
12774;SDS011;6451;42.630;23.382;2023-02-21T02:58:31;5.30;;;3.10;;
12774;SDS011;6451;42.630;23.382;2023-02-21T03:01:04;4.67;;;3.00;;
12774;SDS011;6451;42.630;23.382;2023-02-21T03:03:59;3.97;;;2.73;;
12774;SDS011;6451;42.630;23.382;2023-02-21T03:06:44;5.17;;;3.03;;
12774;SDS011;6451;42.630;23.382;2023-02-21T03:09:17;4.27;;;2.70;;
12774;SDS011;6451;42.630;23.382;2023-02-21T03:11:53;5.10;;;2.60;;
12774;SDS011;6451;42.630;23.382;2023-02-21T03:14:28;4.37;;;2.90;;
12774;SDS011;6451;42.630;23.382;2023-02-21T03:17:03;6.70;;;3.00;;
12774;SDS011;6451;42.630;23.382;2023-02-21T03:19:36;4.73;;;2.93;;
12774;SDS011;6451;42.630;23.382;2023-02-21T03:22:07;3.80;;;3.00;;
12774;SDS011;6451;42.630;23.382;2023-02-21T03:24:39;4.90;;;2.93;;
12774;SDS011;6451;42.630;23.382;2023-02-21T03:27:10;6.13;;;3.20;;
12774;SDS011;6451;42.630;23.382;2023-02-21T03:29:38;4.67;;;2.90;;
12774;SDS011;6451;42.630;23.382;2023-02-21T03:32:12;3.97;;;2.90;;
12774;SDS011;6451;42.630;23.382;2023-02-21T03:34:47;3.73;;;2.63;;
12774;SDS011;6451;42.630;23.382;2023-02-21T03:37:19;6.60;;;2.60;;
12774;SDS011;6451;42.630;23.382;2023-02-21T03:39:55;5.60;;;3.00;;
12774;SDS011;6451;42.630;23.382;2023-02-21T03:42:21;4.83;;;3.10;;
12774;SDS011;6451;42.630;23.382;2023-02-21T03:44:49;4.13;;;2.87;;
12774;SDS011;6451;42.630;23.382;2023-02-21T03:47:16;4.50;;;2.70;;
12774;SDS011;6451;42.630;23.382;2023-02-21T03:49:43;6.00;;;2.97;;
12774;SDS011;6451;42.630;23.382;2023-02-21T03:52:10;3.40;;;2.73;;
12774;SDS011;6451;42.630;23.382;2023-02-21T03:54:39;5.67;;;3.17;;
12774;SDS011;6451;42.630;23.382;2023-02-21T03:57:07;4.73;;;2.77;;
12774;SDS011;6451;42.630;23.382;2023-02-21T03:59:34;3.40;;;2.73;;
12774;SDS011;6451;42.630;23.382;2023-02-21T04:02:04;4.67;;;2.90;;
12774;SDS011;6451;42.630;23.382;2023-02-21T04:04:33;4.20;;;2.90;;
12774;SDS011;6451;42.630;23.382;2023-02-21T04:07:00;5.30;;;3.47;;
12774;SDS011;6451;42.630;23.382;2023-02-21T04:09:30;6.50;;;2.83;;
12774;SDS011;6451;42.630;23.382;2023-02-21T04:12:00;4.37;;;2.97;;
12774;SDS011;6451;42.630;23.382;2023-02-21T04:14:26;4.13;;;2.57;;
12774;SDS011;6451;42.630;23.382;2023-02-21T04:16:53;3.87;;;2.73;;
12774;SDS011;6451;42.630;23.382;2023-02-21T04:19:21;3.80;;;2.73;;
12774;SDS011;6451;42.630;23.382;2023-02-21T04:21:48;4.50;;;2.83;;
12774;SDS011;6451;42.630;23.382;2023-02-21T04:24:16;4.80;;;3.03;;
12774;SDS011;6451;42.630;23.382;2023-02-21T04:26:45;7.30;;;3.20;;
12774;SDS011;6451;42.630;23.382;2023-02-21T04:29:18;3.57;;;3.00;;
12774;SDS011;6451;42.630;23.382;2023-02-21T04:31:46;7.37;;;3.17;;
12774;SDS011;6451;42.630;23.382;2023-02-21T04:34:20;5.23;;;2.50;;
12774;SDS011;6451;42.630;23.382;2023-02-21T04:36:50;5.33;;;3.10;;
12774;SDS011;6451;42.630;23.382;2023-02-21T04:39:23;4.60;;;3.07;;
12774;SDS011;6451;42.630;23.382;2023-02-21T04:41:49;6.33;;;3.10;;
12774;SDS011;6451;42.630;23.382;2023-02-21T04:44:21;7.27;;;3.17;;
12774;SDS011;6451;42.630;23.382;2023-02-21T04:46:48;4.60;;;3.10;;
12774;SDS011;6451;42.630;23.382;2023-02-21T04:49:15;4.50;;;3.00;;
12774;SDS011;6451;42.630;23.382;2023-02-21T04:51:43;4.13;;;3.00;;
12774;SDS011;6451;42.630;23.382;2023-02-21T04:54:14;4.43;;;2.97;;
12774;SDS011;6451;42.630;23.382;2023-02-21T04:56:41;5.57;;;3.07;;
12774;SDS011;6451;42.630;23.382;2023-02-21T04:59:14;4.53;;;3.27;;
12774;SDS011;6451;42.630;23.382;2023-02-21T05:01:42;6.10;;;2.90;;
12774;SDS011;6451;42.630;23.382;2023-02-21T05:04:09;4.87;;;3.00;;
12774;SDS011;6451;42.630;23.382;2023-02-21T05:06:36;6.23;;;3.17;;
12774;SDS011;6451;42.630;23.382;2023-02-21T05:09:03;4.87;;;3.10;;
12774;SDS011;6451;42.630;23.382;2023-02-21T05:11:31;7.40;;;3.27;;
12774;SDS011;6451;42.630;23.382;2023-02-21T05:13:59;3.70;;;2.77;;
12774;SDS011;6451;42.630;23.382;2023-02-21T05:16:26;6.13;;;3.17;;
12774;SDS011;6451;42.630;23.382;2023-02-21T05:18:54;3.87;;;2.73;;
12774;SDS011;6451;42.630;23.382;2023-02-21T05:21:22;5.43;;;3.03;;
12774;SDS011;6451;42.630;23.382;2023-02-21T05:23:49;6.97;;;3.10;;
12774;SDS011;6451;42.630;23.382;2023-02-21T05:26:25;6.33;;;2.83;;
12774;SDS011;6451;42.630;23.382;2023-02-21T05:28:55;7.93;;;3.37;;
12774;SDS011;6451;42.630;23.382;2023-02-21T05:31:22;6.87;;;2.93;;
12774;SDS011;6451;42.630;23.382;2023-02-21T05:33:48;5.07;;;3.17;;
12774;SDS011;6451;42.630;23.382;2023-02-21T05:36:18;6.53;;;3.20;;
12774;SDS011;6451;42.630;23.382;2023-02-21T05:38:49;5.27;;;3.37;;
12774;SDS011;6451;42.630;23.382;2023-02-21T05:41:17;8.43;;;3.73;;
12774;SDS011;6451;42.630;23.382;2023-02-21T05:43:45;6.70;;;3.10;;
12774;SDS011;6451;42.630;23.382;2023-02-21T05:46:21;3.80;;;3.00;;
12774;SDS011;6451;42.630;23.382;2023-02-21T05:48:49;6.77;;;3.60;;
12774;SDS011;6451;42.630;23.382;2023-02-21T05:51:20;8.93;;;3.90;;
12774;SDS011;6451;42.630;23.382;2023-02-21T05:53:48;4.93;;;3.57;;
12774;SDS011;6451;42.630;23.382;2023-02-21T05:56:15;11.47;;;3.63;;
12774;SDS011;6451;42.630;23.382;2023-02-21T05:58:42;6.30;;;3.87;;
12774;SDS011;6451;42.630;23.382;2023-02-21T06:01:09;7.23;;;4.00;;
12774;SDS011;6451;42.630;23.382;2023-02-21T06:03:36;7.20;;;3.90;;
12774;SDS011;6451;42.630;23.382;2023-02-21T06:06:03;6.53;;;3.90;;
12774;SDS011;6451;42.630;23.382;2023-02-21T06:08:37;6.93;;;4.13;;
12774;SDS011;6451;42.630;23.382;2023-02-21T06:11:08;8.17;;;4.20;;
12774;SDS011;6451;42.630;23.382;2023-02-21T06:13:35;8.90;;;5.13;;
12774;SDS011;6451;42.630;23.382;2023-02-21T06:16:02;6.20;;;4.00;;
12774;SDS011;6451;42.630;23.382;2023-02-21T06:18:29;5.97;;;3.87;;
12774;SDS011;6451;42.630;23.382;2023-02-21T06:20:56;9.93;;;4.40;;
12774;SDS011;6451;42.630;23.382;2023-02-21T06:23:23;13.57;;;4.73;;
12774;SDS011;6451;42.630;23.382;2023-02-21T06:25:51;9.40;;;3.87;;
12774;SDS011;6451;42.630;23.382;2023-02-21T06:28:18;11.13;;;4.07;;
12774;SDS011;6451;42.630;23.382;2023-02-21T06:30:45;11.90;;;4.77;;
12774;SDS011;6451;42.630;23.382;2023-02-21T06:33:12;9.17;;;5.03;;
12774;SDS011;6451;42.630;23.382;2023-02-21T06:35:38;7.80;;;5.10;;
12774;SDS011;6451;42.630;23.382;2023-02-21T06:41:05;6.90;;;4.60;;
12774;SDS011;6451;42.630;23.382;2023-02-21T06:43:32;11.53;;;4.93;;
12774;SDS011;6451;42.630;23.382;2023-02-21T06:46:00;8.47;;;4.67;;
12774;SDS011;6451;42.630;23.382;2023-02-21T06:48:29;15.20;;;5.63;;
12774;SDS011;6451;42.630;23.382;2023-02-21T06:50:56;9.67;;;4.93;;
12774;SDS011;6451;42.630;23.382;2023-02-21T06:53:23;8.67;;;4.80;;
12774;SDS011;6451;42.630;23.382;2023-02-21T06:55:50;6.90;;;4.13;;
12774;SDS011;6451;42.630;23.382;2023-02-21T06:58:20;11.40;;;4.43;;
12774;SDS011;6451;42.630;23.382;2023-02-21T07:00:47;10.87;;;4.23;;
12774;SDS011;6451;42.630;23.382;2023-02-21T07:03:13;14.57;;;4.60;;
12774;SDS011;6451;42.630;23.382;2023-02-21T07:05:40;18.53;;;5.17;;
12774;SDS011;6451;42.630;23.382;2023-02-21T07:08:08;12.57;;;5.00;;
12774;SDS011;6451;42.630;23.382;2023-02-21T07:10:35;11.23;;;5.00;;
12774;SDS011;6451;42.630;23.382;2023-02-21T07:13:01;10.70;;;5.23;;
12774;SDS011;6451;42.630;23.382;2023-02-21T07:15:30;10.47;;;5.13;;
12774;SDS011;6451;42.630;23.382;2023-02-21T07:17:56;8.20;;;4.60;;
12774;SDS011;6451;42.630;23.382;2023-02-21T07:20:23;7.20;;;4.37;;
12774;SDS011;6451;42.630;23.382;2023-02-21T07:22:51;8.23;;;4.17;;
12774;SDS011;6451;42.630;23.382;2023-02-21T07:25:19;7.10;;;4.37;;
12774;SDS011;6451;42.630;23.382;2023-02-21T07:27:48;9.43;;;4.70;;
12774;SDS011;6451;42.630;23.382;2023-02-21T07:30:17;7.87;;;3.93;;
12774;SDS011;6451;42.630;23.382;2023-02-21T07:32:45;9.47;;;4.33;;
12774;SDS011;6451;42.630;23.382;2023-02-21T07:35:12;8.30;;;4.67;;
12774;SDS011;6451;42.630;23.382;2023-02-21T07:37:39;8.13;;;4.67;;
12774;SDS011;6451;42.630;23.382;2023-02-21T07:40:06;11.90;;;4.73;;
12774;SDS011;6451;42.630;23.382;2023-02-21T07:42:34;10.63;;;5.50;;
12774;SDS011;6451;42.630;23.382;2023-02-21T07:45:01;12.10;;;5.70;;
12774;SDS011;6451;42.630;23.382;2023-02-21T07:47:28;9.87;;;5.23;;
12774;SDS011;6451;42.630;23.382;2023-02-21T07:49:56;9.23;;;5.40;;
12774;SDS011;6451;42.630;23.382;2023-02-21T07:52:23;11.17;;;4.83;;
12774;SDS011;6451;42.630;23.382;2023-02-21T07:54:50;9.80;;;4.80;;
12774;SDS011;6451;42.630;23.382;2023-02-21T07:57:17;9.67;;;5.33;;
12774;SDS011;6451;42.630;23.382;2023-02-21T07:59:44;10.80;;;5.80;;
12774;SDS011;6451;42.630;23.382;2023-02-21T08:02:12;15.70;;;5.17;;
12774;SDS011;6451;42.630;23.382;2023-02-21T08:04:39;10.17;;;4.70;;
12774;SDS011;6451;42.630;23.382;2023-02-21T08:07:08;8.73;;;5.03;;
12774;SDS011;6451;42.630;23.382;2023-02-21T08:09:35;12.10;;;5.37;;
12774;SDS011;6451;42.630;23.382;2023-02-21T08:12:05;7.77;;;5.00;;
12774;SDS011;6451;42.630;23.382;2023-02-21T08:14:32;8.23;;;5.37;;
12774;SDS011;6451;42.630;23.382;2023-02-21T08:16:59;7.90;;;5.00;;
12774;SDS011;6451;42.630;23.382;2023-02-21T08:19:25;8.43;;;5.43;;
12774;SDS011;6451;42.630;23.382;2023-02-21T08:21:52;9.87;;;5.27;;
12774;SDS011;6451;42.630;23.382;2023-02-21T08:24:21;12.43;;;5.77;;
12774;SDS011;6451;42.630;23.382;2023-02-21T08:26:48;10.90;;;5.83;;
12774;SDS011;6451;42.630;23.382;2023-02-21T08:29:14;9.20;;;5.40;;
12774;SDS011;6451;42.630;23.382;2023-02-21T08:31:42;10.00;;;5.23;;
12774;SDS011;6451;42.630;23.382;2023-02-21T08:34:09;16.77;;;5.57;;
12774;SDS011;6451;42.630;23.382;2023-02-21T08:36:37;12.97;;;5.47;;
12774;SDS011;6451;42.630;23.382;2023-02-21T08:39:05;9.53;;;5.20;;
12774;SDS011;6451;42.630;23.382;2023-02-21T08:41:38;12.33;;;4.90;;
12774;SDS011;6451;42.630;23.382;2023-02-21T08:44:06;11.83;;;4.97;;
12774;SDS011;6451;42.630;23.382;2023-02-21T08:46:34;12.43;;;4.97;;
12774;SDS011;6451;42.630;23.382;2023-02-21T08:49:01;9.07;;;4.67;;
12774;SDS011;6451;42.630;23.382;2023-02-21T08:51:29;8.53;;;5.00;;
12774;SDS011;6451;42.630;23.382;2023-02-21T08:53:57;9.37;;;4.77;;
12774;SDS011;6451;42.630;23.382;2023-02-21T08:56:26;9.03;;;4.93;;
12774;SDS011;6451;42.630;23.382;2023-02-21T08:58:56;8.83;;;4.40;;
12774;SDS011;6451;42.630;23.382;2023-02-21T09:01:23;9.27;;;4.70;;
12774;SDS011;6451;42.630;23.382;2023-02-21T09:03:55;6.17;;;4.30;;
12774;SDS011;6451;42.630;23.382;2023-02-21T09:06:22;8.97;;;4.60;;
12774;SDS011;6451;42.630;23.382;2023-02-21T09:08:49;7.80;;;4.37;;
12774;SDS011;6451;42.630;23.382;2023-02-21T09:11:16;10.93;;;4.10;;
12774;SDS011;6451;42.630;23.382;2023-02-21T09:13:43;10.20;;;4.30;;
12774;SDS011;6451;42.630;23.382;2023-02-21T09:16:11;8.33;;;4.33;;
12774;SDS011;6451;42.630;23.382;2023-02-21T09:18:38;7.70;;;4.33;;
12774;SDS011;6451;42.630;23.382;2023-02-21T09:21:05;9.93;;;4.57;;
12774;SDS011;6451;42.630;23.382;2023-02-21T09:23:32;12.50;;;4.20;;
12774;SDS011;6451;42.630;23.382;2023-02-21T09:25:59;12.47;;;5.20;;
12774;SDS011;6451;42.630;23.382;2023-02-21T09:28:26;12.13;;;4.77;;
12774;SDS011;6451;42.630;23.382;2023-02-21T09:30:53;13.50;;;4.80;;
12774;SDS011;6451;42.630;23.382;2023-02-21T09:33:21;11.50;;;5.17;;
12774;SDS011;6451;42.630;23.382;2023-02-21T09:35:48;14.17;;;4.70;;
12774;SDS011;6451;42.630;23.382;2023-02-21T09:38:16;6.57;;;4.10;;
12774;SDS011;6451;42.630;23.382;2023-02-21T09:40:43;10.13;;;4.00;;
12774;SDS011;6451;42.630;23.382;2023-02-21T09:43:14;8.67;;;4.13;;
12774;SDS011;6451;42.630;23.382;2023-02-21T09:45:44;6.60;;;3.93;;
12774;SDS011;6451;42.630;23.382;2023-02-21T09:48:13;10.57;;;4.50;;
12774;SDS011;6451;42.630;23.382;2023-02-21T09:50:45;10.83;;;4.00;;
12774;SDS011;6451;42.630;23.382;2023-02-21T09:53:15;8.03;;;4.30;;
12774;SDS011;6451;42.630;23.382;2023-02-21T09:55:46;6.60;;;4.33;;
12774;SDS011;6451;42.630;23.382;2023-02-21T09:58:16;8.40;;;4.20;;
12774;SDS011;6451;42.630;23.382;2023-02-21T10:00:45;7.63;;;4.10;;
12774;SDS011;6451;42.630;23.382;2023-02-21T10:03:32;10.57;;;4.27;;
12774;SDS011;6451;42.630;23.382;2023-02-21T10:06:11;12.13;;;4.53;;
12774;SDS011;6451;42.630;23.382;2023-02-21T10:08:52;7.03;;;4.03;;
12774;SDS011;6451;42.630;23.382;2023-02-21T10:11:27;9.00;;;4.43;;
12774;SDS011;6451;42.630;23.382;2023-02-21T10:14:05;9.10;;;4.60;;
12774;SDS011;6451;42.630;23.382;2023-02-21T10:16:46;8.70;;;4.10;;
12774;SDS011;6451;42.630;23.382;2023-02-21T10:19:23;7.60;;;4.00;;
12774;SDS011;6451;42.630;23.382;2023-02-21T10:21:57;9.33;;;4.33;;
12774;SDS011;6451;42.630;23.382;2023-02-21T10:24:27;7.20;;;3.90;;
12774;SDS011;6451;42.630;23.382;2023-02-21T10:27:01;9.10;;;3.57;;
12774;SDS011;6451;42.630;23.382;2023-02-21T10:29:34;7.90;;;3.80;;
12774;SDS011;6451;42.630;23.382;2023-02-21T10:32:06;9.30;;;3.87;;
12774;SDS011;6451;42.630;23.382;2023-02-21T10:34:34;6.93;;;3.87;;
12774;SDS011;6451;42.630;23.382;2023-02-21T10:37:05;8.33;;;3.80;;
12774;SDS011;6451;42.630;23.382;2023-02-21T10:39:48;9.73;;;3.30;;
12774;SDS011;6451;42.630;23.382;2023-02-21T10:42:19;8.43;;;3.13;;
12774;SDS011;6451;42.630;23.382;2023-02-21T10:44:54;6.78;;;2.92;;
12774;SDS011;6451;42.630;23.382;2023-02-21T10:47:23;7.82;;;3.13;;
12774;SDS011;6451;42.630;23.382;2023-02-21T10:49:58;6.80;;;3.03;;
12774;SDS011;6451;42.630;23.382;2023-02-21T10:52:29;5.82;;;3.22;;
12774;SDS011;6451;42.630;23.382;2023-02-21T10:55:03;6.97;;;2.72;;
12774;SDS011;6451;42.630;23.382;2023-02-21T10:57:37;7.10;;;3.47;;
12774;SDS011;6451;42.630;23.382;2023-02-21T11:00:07;7.28;;;3.30;;
12774;SDS011;6451;42.630;23.382;2023-02-21T11:02:35;8.43;;;3.22;;
12774;SDS011;6451;42.630;23.382;2023-02-21T11:05:12;5.68;;;3.10;;
12774;SDS011;6451;42.630;23.382;2023-02-21T11:07:43;6.85;;;2.97;;
12774;SDS011;6451;42.630;23.382;2023-02-21T11:10:29;6.15;;;2.67;;
12774;SDS011;6451;42.630;23.382;2023-02-21T11:13:05;6.35;;;3.17;;
12774;SDS011;6451;42.630;23.382;2023-02-21T11:15:38;5.53;;;2.42;;
12774;SDS011;6451;42.630;23.382;2023-02-21T11:18:09;3.17;;;2.00;;
12774;SDS011;6451;42.630;23.382;2023-02-21T11:20:38;3.88;;;1.83;;
12774;SDS011;6451;42.630;23.382;2023-02-21T11:23:18;4.85;;;1.63;;
12774;SDS011;6451;42.630;23.382;2023-02-21T11:25:47;2.63;;;1.52;;
12774;SDS011;6451;42.630;23.382;2023-02-21T11:28:19;3.78;;;1.50;;
12774;SDS011;6451;42.630;23.382;2023-02-21T11:30:48;2.08;;;1.60;;
12774;SDS011;6451;42.630;23.382;2023-02-21T11:33:28;2.88;;;1.85;;
12774;SDS011;6451;42.630;23.382;2023-02-21T11:36:05;3.47;;;1.52;;
12774;SDS011;6451;42.630;23.382;2023-02-21T11:38:37;3.40;;;1.35;;
12774;SDS011;6451;42.630;23.382;2023-02-21T11:41:22;7.22;;;1.70;;
12774;SDS011;6451;42.630;23.382;2023-02-21T11:43:54;2.33;;;1.50;;
12774;SDS011;6451;42.630;23.382;2023-02-21T11:46:31;2.03;;;1.55;;
12774;SDS011;6451;42.630;23.382;2023-02-21T11:49:05;7.32;;;1.50;;
12774;SDS011;6451;42.630;23.382;2023-02-21T11:51:40;3.65;;;1.30;;
12774;SDS011;6451;42.630;23.382;2023-02-21T11:54:12;2.35;;;1.50;;
12774;SDS011;6451;42.630;23.382;2023-02-21T11:56:48;3.67;;;1.50;;
12774;SDS011;6451;42.630;23.382;2023-02-21T11:59:23;5.70;;;1.70;;
12774;SDS011;6451;42.630;23.382;2023-02-21T12:05:04;4.00;;;1.50;;
12774;SDS011;6451;42.630;23.382;2023-02-21T12:07:45;1.70;;;1.33;;
12774;SDS011;6451;42.630;23.382;2023-02-21T12:10:28;3.78;;;1.48;;
12774;SDS011;6451;42.630;23.382;2023-02-21T12:13:09;1.45;;;1.33;;
12774;SDS011;6451;42.630;23.382;2023-02-21T12:15:50;4.55;;;1.60;;
12774;SDS011;6451;42.630;23.382;2023-02-21T12:21:34;1.83;;;1.30;;
12774;SDS011;6451;42.630;23.382;2023-02-21T12:24:21;2.92;;;1.65;;
12774;SDS011;6451;42.630;23.382;2023-02-21T12:26:59;3.55;;;1.80;;
12774;SDS011;6451;42.630;23.382;2023-02-21T12:29:34;4.00;;;1.52;;
12774;SDS011;6451;42.630;23.382;2023-02-21T12:35:21;2.70;;;1.60;;
12774;SDS011;6451;42.630;23.382;2023-02-21T12:38:06;2.97;;;1.50;;
12774;SDS011;6451;42.630;23.382;2023-02-21T12:40:43;2.42;;;1.50;;
12774;SDS011;6451;42.630;23.382;2023-02-21T12:43:27;3.22;;;1.88;;
12774;SDS011;6451;42.630;23.382;2023-02-21T12:46:08;3.38;;;1.40;;
12774;SDS011;6451;42.630;23.382;2023-02-21T12:48:43;2.83;;;1.60;;
12774;SDS011;6451;42.630;23.382;2023-02-21T12:51:16;2.65;;;1.67;;
12774;SDS011;6451;42.630;23.382;2023-02-21T12:53:46;2.17;;;1.50;;
12774;SDS011;6451;42.630;23.382;2023-02-21T12:56:20;2.10;;;1.50;;
12774;SDS011;6451;42.630;23.382;2023-02-21T12:58:53;3.05;;;1.58;;
12774;SDS011;6451;42.630;23.382;2023-02-21T13:01:27;2.20;;;1.40;;
12774;SDS011;6451;42.630;23.382;2023-02-21T13:04:02;2.42;;;1.35;;
12774;SDS011;6451;42.630;23.382;2023-02-21T13:06:41;2.40;;;1.40;;
12774;SDS011;6451;42.630;23.382;2023-02-21T13:09:14;2.60;;;1.50;;
12774;SDS011;6451;42.630;23.382;2023-02-21T13:11:48;2.00;;;1.42;;
12774;SDS011;6451;42.630;23.382;2023-02-21T13:14:26;2.38;;;1.38;;
12774;SDS011;6451;42.630;23.382;2023-02-21T13:16:57;2.67;;;1.60;;
12774;SDS011;6451;42.630;23.382;2023-02-21T13:19:24;3.80;;;1.60;;
12774;SDS011;6451;42.630;23.382;2023-02-21T13:25:32;2.42;;;1.60;;
12774;SDS011;6451;42.630;23.382;2023-02-21T13:28:10;3.55;;;1.50;;
12774;SDS011;6451;42.630;23.382;2023-02-21T13:30:45;2.00;;;1.50;;
12774;SDS011;6451;42.630;23.382;2023-02-21T13:33:22;2.22;;;1.50;;
12774;SDS011;6451;42.630;23.382;2023-02-21T13:35:51;3.60;;;1.35;;
12774;SDS011;6451;42.630;23.382;2023-02-21T13:38:22;3.83;;;1.60;;
12774;SDS011;6451;42.630;23.382;2023-02-21T13:40:53;2.95;;;1.50;;
12774;SDS011;6451;42.630;23.382;2023-02-21T13:43:30;4.40;;;1.60;;
12774;SDS011;6451;42.630;23.382;2023-02-21T13:55:24;2.42;;;1.60;;
12774;SDS011;6451;42.630;23.382;2023-02-21T14:01:20;1.88;;;1.50;;
12774;SDS011;6451;42.630;23.382;2023-02-21T14:07:18;2.35;;;1.83;;
12774;SDS011;6451;42.630;23.382;2023-02-21T14:10:12;2.97;;;1.60;;
12774;SDS011;6451;42.630;23.382;2023-02-21T14:12:46;4.00;;;1.70;;
12774;SDS011;6451;42.630;23.382;2023-02-21T14:15:19;4.18;;;1.90;;
12774;SDS011;6451;42.630;23.382;2023-02-21T14:17:46;3.55;;;2.00;;
12774;SDS011;6451;42.630;23.382;2023-02-21T14:20:19;2.63;;;1.63;;
12774;SDS011;6451;42.630;23.382;2023-02-21T14:22:50;2.40;;;1.70;;
12774;SDS011;6451;42.630;23.382;2023-02-21T14:25:20;3.42;;;1.67;;
12774;SDS011;6451;42.630;23.382;2023-02-21T14:27:50;2.10;;;1.88;;
12774;SDS011;6451;42.630;23.382;2023-02-21T14:30:28;3.95;;;2.05;;
12774;SDS011;6451;42.630;23.382;2023-02-21T14:33:06;2.17;;;1.90;;
12774;SDS011;6451;42.630;23.382;2023-02-21T14:35:42;2.67;;;1.70;;
12774;SDS011;6451;42.630;23.382;2023-02-21T14:38:17;5.30;;;1.63;;
12774;SDS011;6451;42.630;23.382;2023-02-21T14:40:55;2.20;;;1.63;;
12774;SDS011;6451;42.630;23.382;2023-02-21T14:55:23;3.63;;;1.98;;
12774;SDS011;6451;42.630;23.382;2023-02-21T15:00:54;3.03;;;1.70;;
12774;SDS011;6451;42.630;23.382;2023-02-21T15:03:31;4.80;;;1.70;;
12774;SDS011;6451;42.630;23.382;2023-02-21T15:06:04;3.50;;;1.80;;
12774;SDS011;6451;42.630;23.382;2023-02-21T15:08:39;2.72;;;1.90;;
12774;SDS011;6451;42.630;23.382;2023-02-21T15:11:16;7.60;;;2.05;;
12774;SDS011;6451;42.630;23.382;2023-02-21T15:13:47;3.28;;;1.77;;
12774;SDS011;6451;42.630;23.382;2023-02-21T15:16:38;3.80;;;1.92;;
12774;SDS011;6451;42.630;23.382;2023-02-21T15:19:18;5.85;;;1.63;;
12774;SDS011;6451;42.630;23.382;2023-02-21T15:27:53;6.78;;;2.20;;
12774;SDS011;6451;42.630;23.382;2023-02-21T15:30:24;5.07;;;2.10;;
12774;SDS011;6451;42.630;23.382;2023-02-21T15:32:55;6.55;;;2.47;;
12774;SDS011;6451;42.630;23.382;2023-02-21T15:35:25;5.10;;;2.28;;
12774;SDS011;6451;42.630;23.382;2023-02-21T15:37:55;5.03;;;2.10;;
12774;SDS011;6451;42.630;23.382;2023-02-21T15:40:25;3.95;;;2.13;;
12774;SDS011;6451;42.630;23.382;2023-02-21T15:42:54;4.82;;;2.42;;
12774;SDS011;6451;42.630;23.382;2023-02-21T15:45:22;5.93;;;2.38;;
12774;SDS011;6451;42.630;23.382;2023-02-21T15:47:52;6.78;;;2.70;;
12774;SDS011;6451;42.630;23.382;2023-02-21T15:50:24;8.85;;;2.97;;
12774;SDS011;6451;42.630;23.382;2023-02-21T15:52:56;6.68;;;2.85;;
12774;SDS011;6451;42.630;23.382;2023-02-21T15:55:43;10.23;;;3.33;;
12774;SDS011;6451;42.630;23.382;2023-02-21T15:58:16;7.53;;;3.17;;
12774;SDS011;6451;42.630;23.382;2023-02-21T16:00:46;7.70;;;4.18;;
12774;SDS011;6451;42.630;23.382;2023-02-21T16:03:26;8.57;;;3.75;;
12774;SDS011;6451;42.630;23.382;2023-02-21T16:06:09;7.50;;;3.60;;
12774;SDS011;6451;42.630;23.382;2023-02-21T16:08:39;7.60;;;4.10;;
12774;SDS011;6451;42.630;23.382;2023-02-21T16:11:17;6.05;;;3.90;;
12774;SDS011;6451;42.630;23.382;2023-02-21T16:13:48;12.55;;;3.80;;
12774;SDS011;6451;42.630;23.382;2023-02-21T16:16:15;8.80;;;4.35;;
12774;SDS011;6451;42.630;23.382;2023-02-21T16:18:42;6.35;;;3.60;;
12774;SDS011;6451;42.630;23.382;2023-02-21T16:21:20;8.30;;;3.90;;
12774;SDS011;6451;42.630;23.382;2023-02-21T16:23:48;8.30;;;4.45;;